Time;durP1;ratioP1;P1;durP2;ratioP2;P2;SDS_P1;SDS_P2;PMS_P1;PMS_P2;Temp;Humidity;BMP_temperature;BMP_pressure;BME280_temperature;BME280_humidity;BME280_pressure;Samples;Min_cycle;Max_cycle;Signal;HPM_P1;HPM_P2
2022/05/15 00:00:37;;;;;;;5.35;2.33;;;;;;;14.96;58.39;100599.88;5095571;28;20036;-81
2022/05/15 00:03:14;;;;;;;8.48;3.30;;;;;;;14.74;58.91;100604.97;5095414;28;20078;-81
2022/05/15 00:05:40;;;;;;;6.40;2.90;;;;;;;14.89;58.93;100599.13;5095383;28;20158;-81
2022/05/15 00:08:06;;;;;;;9.27;2.92;;;;;;;14.77;59.28;100603.69;5095569;28;20038;-81
2022/05/15 00:10:32;;;;;;;9.35;3.03;;;;;;;14.73;59.69;100607.91;5097651;28;20044;-81
2022/05/15 00:12:57;;;;;;;6.25;2.60;;;;;;;14.72;59.46;100603.53;5077798;28;20093;-81
2022/05/15 00:15:22;;;;;;;5.80;1.88;;;;;;;14.76;60.12;100602.03;5097448;28;20119;-81
2022/05/15 00:17:48;;;;;;;9.05;3.08;;;;;;;14.51;60.25;100607.56;5101185;28;20036;-81
2022/05/15 00:20:13;;;;;;;13.15;3.17;;;;;;;14.49;60.18;100599.66;5101228;28;20047;-81
2022/05/15 00:22:40;;;;;;;8.93;2.72;;;;;;;14.39;61.03;100603.88;5100371;28;20036;-82
2022/05/15 00:25:06;;;;;;;7.40;2.78;;;;;;;14.17;61.56;100600.78;5100890;28;20051;-82
2022/05/15 00:27:31;;;;;;;8.43;2.30;;;;;;;14.25;61.42;100603.19;5102118;28;20028;-81
2022/05/15 00:29:56;;;;;;;5.77;2.47;;;;;;;14.13;61.36;100605.00;5084847;28;20044;-81
2022/05/15 00:32:22;;;;;;;5.40;2.20;;;;;;;14.28;61.17;100601.94;5103313;28;20354;-85
2022/05/15 00:34:47;;;;;;;8.18;2.70;;;;;;;14.27;61.38;100594.84;5104500;28;20038;-80
2022/05/15 00:37:12;;;;;;;9.40;3.20;;;;;;;14.29;61.62;100601.72;5087090;28;20059;-80
2022/05/15 00:39:38;;;;;;;7.30;3.25;;;;;;;14.30;61.37;100605.25;5106147;28;20286;-80
2022/05/15 00:42:09;;;;;;;6.23;2.30;;;;;;;14.35;61.45;100599.97;5086301;28;20459;-80
2022/05/15 00:44:34;;;;;;;6.15;2.15;;;;;;;14.37;61.41;100603.28;5100783;28;20262;-80
2022/05/15 00:46:59;;;;;;;6.20;2.53;;;;;;;14.36;61.61;100601.63;5064976;28;20024;-80
2022/05/15 00:49:25;;;;;;;12.15;3.45;;;;;;;14.19;61.65;100594.06;5098531;28;20034;-80
2022/05/15 00:51:59;;;;;;;8.45;3.17;;;;;;;14.13;62.18;100599.59;5080656;28;20050;-80
2022/05/15 00:54:39;;;;;;;10.40;2.60;;;;;;;13.94;62.79;100597.91;5099998;28;20055;-79
2022/05/15 00:57:10;;;;;;;7.30;2.80;;;;;;;13.69;63.93;100596.00;5083035;28;20394;-80
2022/05/15 00:59:42;;;;;;;5.43;2.72;;;;;;;13.76;63.93;100601.38;5103483;28;20034;-80
2022/05/15 01:02:10;;;;;;;9.18;3.00;;;;;;;13.54;64.48;100598.22;5103255;28;20024;-80
2022/05/15 01:04:36;;;;;;;7.57;2.50;;;;;;;13.53;65.25;100588.44;5104460;28;20032;-82
2022/05/15 01:07:02;;;;;;;;;;;;;;;13.38;65.78;100593.34;5089952;28;20032;-80
2022/05/15 01:09:28;;;;;;;8.18;2.55;;;;;;;13.21;66.67;100595.75;5089387;28;20430;-81
2022/05/15 01:11:54;;;;;;;6.82;3.15;;;;;;;13.12;67.26;100605.13;5089277;28;20089;-81
2022/05/15 01:14:20;;;;;;;8.25;3.85;;;;;;;13.11;67.79;100608.88;5106479;28;20028;-82
2022/05/15 01:16:46;;;;;;;7.25;2.80;;;;;;;13.38;66.86;100599.59;5105186;28;20034;-82
2022/05/15 01:19:11;;;;;;;11.93;3.05;;;;;;;13.35;66.75;100600.03;5086416;28;20459;-83
2022/05/15 01:21:40;;;;;;;5.53;2.78;;;;;;;13.16;67.47;100592.84;5104382;28;20028;-82
2022/05/15 01:24:08;;;;;;;7.80;3.20;;;;;;;13.44;66.93;100597.84;5081473;28;20039;-82
2022/05/15 01:26:37;;;;;;;9.65;3.78;;;;;;;13.53;66.45;100585.72;5099049;28;20060;-82
2022/05/15 01:29:05;;;;;;;6.95;3.20;;;;;;;13.51;66.28;100595.94;5080795;28;20142;-82
2022/05/15 01:31:31;;;;;;;9.45;3.72;;;;;;;13.30;67.19;100594.44;5101004;28;20083;-82
2022/05/15 01:33:59;;;;;;;8.13;3.67;;;;;;;13.21;67.44;100598.44;5099839;28;20385;-82
2022/05/15 01:36:25;;;;;;;9.40;3.55;;;;;;;13.04;68.47;100598.09;5098737;28;20099;-82
2022/05/15 01:38:51;;;;;;;8.32;3.13;;;;;;;13.05;68.65;100598.94;5097741;28;20087;-81
2022/05/15 01:41:17;;;;;;;8.77;3.70;;;;;;;12.99;69.25;100597.91;5081159;28;20070;-81
2022/05/15 01:43:53;;;;;;;9.45;3.70;;;;;;;12.89;70.00;100600.28;5098541;28;20067;-80
2022/05/15 01:46:21;;;;;;;6.00;3.00;;;;;;;12.80;70.55;100594.28;5099433;28;20035;-81
2022/05/15 01:48:47;;;;;;;8.02;3.92;;;;;;;12.65;71.19;100592.88;5079637;28;20449;-81
2022/05/15 01:51:12;;;;;;;;;;;;;;;12.62;71.40;100587.91;5097430;28;20471;-80
2022/05/15 01:53:38;;;;;;;10.30;3.57;;;;;;;12.58;71.61;100597.47;5097979;28;19957;-81
2022/05/15 01:56:04;;;;;;;10.80;4.65;;;;;;;12.51;72.08;100592.94;5080098;28;20031;-81
2022/05/15 01:58:29;;;;;;;8.02;3.90;;;;;;;12.48;71.91;100589.84;5097803;28;20038;-81
2022/05/15 02:00:55;;;;;;;12.07;4.23;;;;;;;12.41;71.85;100591.72;5079662;28;20028;-80
2022/05/15 02:03:20;;;;;;;8.60;3.80;;;;;;;12.39;72.28;100591.91;5098380;28;20265;-80
2022/05/15 02:05:45;;;;;;;10.73;4.45;;;;;;;12.36;72.67;100591.53;5098983;28;20040;-80
2022/05/15 02:08:11;;;;;;;8.93;3.87;;;;;;;12.35;72.54;100593.41;5097395;28;20040;-81
2022/05/15 02:10:36;;;;;;;8.63;4.10;;;;;;;12.32;72.42;100591.13;5098521;28;20713;-82
2022/05/15 02:13:01;;;;;;;8.13;4.07;;;;;;;12.34;72.33;100589.03;5099568;28;20436;-83
2022/05/15 02:15:27;;;;;;;12.88;4.18;;;;;;;12.23;73.08;100583.44;5100559;28;20050;-86
2022/05/15 02:17:52;;;;;;;10.37;4.40;;;;;;;12.41;72.61;100591.72;5099486;28;20083;-81
2022/05/15 02:20:18;;;;;;;12.00;4.30;;;;;;;12.40;72.51;100592.75;5081706;28;20302;-84
2022/05/15 02:22:43;;;;;;;10.73;4.50;;;;;;;12.28;72.85;100586.34;5100322;28;20028;-82
2022/05/15 02:25:12;;;;;;;7.77;3.60;;;;;;;12.44;72.17;100584.00;5082318;28;20032;-82
2022/05/15 02:27:37;;;;;;;9.63;4.68;;;;;;;12.35;72.44;100581.78;5102125;28;20298;-82
2022/05/15 02:30:05;;;;;;;8.67;3.80;;;;;;;12.37;72.66;100577.78;5101827;28;20059;-81
2022/05/15 02:32:30;;;;;;;7.93;4.05;;;;;;;12.31;72.96;100585.94;5102858;28;20024;-81
2022/05/15 02:34:55;;;;;;;8.13;3.67;;;;;;;12.37;72.66;100588.59;5102042;28;20046;-82
2022/05/15 02:37:21;;;;;;;7.97;3.83;;;;;;;12.27;72.80;100582.81;5102543;28;20031;-81
2022/05/15 02:39:46;;;;;;;8.97;4.40;;;;;;;12.38;73.03;100581.31;5102426;28;20027;-85
2022/05/15 02:42:11;;;;;;;7.50;4.13;;;;;;;12.42;72.81;100588.78;5101612;28;20483;-81
2022/05/15 02:44:37;;;;;;;9.07;4.82;;;;;;;12.28;73.04;100576.38;5101637;28;20032;-81
2022/05/15 02:47:04;;;;;;;10.23;4.13;;;;;;;12.15;73.90;100581.81;5082699;28;20039;-81
2022/05/15 02:52:13;;;;;;;10.57;4.25;;;;;;;12.18;73.65;100577.88;5097089;28;20114;-82
2022/05/15 02:54:38;;;;;;;10.93;3.73;;;;;;;12.20;73.71;100590.09;5100825;28;20024;-80
2022/05/15 02:57:06;;;;;;;9.50;4.05;;;;;;;12.21;73.88;100583.66;5098864;28;20073;-81
2022/05/15 02:59:33;;;;;;;10.27;4.13;;;;;;;11.99;74.77;100585.81;5102208;28;20064;-81
2022/05/15 03:01:59;;;;;;;13.43;4.97;;;;;;;11.89;75.27;100584.56;5079880;28;20024;-80
2022/05/15 03:04:24;;;;;;;7.63;4.35;;;;;;;11.90;75.04;100583.50;5099051;28;20039;-80
2022/05/15 03:06:50;;;;;;;11.82;4.68;;;;;;;11.81;75.28;100589.16;5096846;28;20496;-79
2022/05/15 03:09:15;;;;;;;9.20;4.13;;;;;;;11.81;75.51;100583.75;5095624;28;20547;-80
2022/05/15 03:11:40;;;;;;;7.65;4.03;;;;;;;11.78;75.52;100583.31;5095034;28;20664;-80
2022/05/15 03:14:06;;;;;;;10.20;4.57;;;;;;;11.84;75.11;100582.47;5077244;28;20063;-80
2022/05/15 03:16:32;;;;;;;8.15;4.13;;;;;;;11.80;75.24;100576.69;5095276;28;20028;-86
2022/05/15 03:18:57;;;;;;;9.90;4.18;;;;;;;11.84;75.24;100579.78;5077363;28;20093;-80
2022/05/15 03:21:28;;;;;;;7.87;4.00;;;;;;;11.67;76.52;100583.91;5095702;28;20381;-80
2022/05/15 03:23:56;;;;;;;9.38;3.90;;;;;;;11.71;75.91;100572.50;5077620;28;20028;-81
2022/05/15 03:26:21;;;;;;;8.20;3.70;;;;;;;11.59;76.34;100570.63;5096184;28;20111;-80
2022/05/15 03:28:46;;;;;;;8.65;4.20;;;;;;;11.48;77.38;100570.19;5094947;28;20458;-82
2022/05/15 03:31:12;;;;;;;7.67;4.27;;;;;;;11.32;78.05;100576.00;5076643;28;20393;-81
2022/05/15 03:33:38;;;;;;;9.77;4.53;;;;;;;11.31;77.91;100573.50;5079736;28;20084;-80
2022/05/15 03:36:10;;;;;;;9.50;4.68;;;;;;;11.28;77.92;100572.09;5095723;28;20028;-80
2022/05/15 03:38:36;;;;;;;7.60;4.30;;;;;;;11.23;78.06;100577.25;5077494;28;20032;-81
2022/05/15 03:41:01;;;;;;;10.85;4.38;;;;;;;11.23;78.26;100566.47;5097254;28;20082;-81
2022/05/15 03:43:26;;;;;;;8.37;4.73;;;;;;;11.16;78.56;100571.00;5097625;28;20032;-80
2022/05/15 03:45:52;;;;;;;8.90;4.40;;;;;;;11.14;78.76;100570.38;5079083;28;20729;-80
2022/05/15 03:48:17;;;;;;;9.63;4.90;;;;;;;11.14;78.69;100568.50;5096978;28;20032;-81
2022/05/15 03:50:42;;;;;;;13.10;4.83;;;;;;;11.19;78.44;100567.06;5097221;28;20435;-80
2022/05/15 03:53:08;;;;;;;9.97;4.53;;;;;;;11.13;78.59;100561.44;5096885;28;20025;-81
2022/05/15 03:55:34;;;;;;;7.45;4.32;;;;;;;11.06;78.97;100562.50;5096023;28;20035;-81
2022/05/15 03:57:59;;;;;;;11.33;4.73;;;;;;;11.06;78.91;100573.28;5095576;28;20044;-79
2022/05/15 04:00:24;;;;;;;10.00;5.10;;;;;;;11.05;79.32;100566.22;5094268;28;20031;-79
2022/05/15 04:02:50;;;;;;;9.45;4.70;;;;;;;11.06;79.11;100554.41;5096749;28;20250;-80
2022/05/15 04:05:15;;;;;;;13.68;4.93;;;;;;;11.02;79.59;100561.25;5080342;28;20030;-80
2022/05/15 04:07:45;;;;;;;8.80;4.87;;;;;;;11.01;79.54;100563.09;5098853;28;20039;-80
2022/05/15 04:10:12;;;;;;;8.13;4.38;;;;;;;10.98;79.52;100558.09;5080281;28;20501;-79
2022/05/15 04:12:38;;;;;;;8.85;3.95;;;;;;;10.98;79.31;100552.72;5098754;28;20032;-79
2022/05/15 04:15:03;;;;;;;10.57;4.53;;;;;;;11.12;78.72;100562.50;5080551;28;20035;-79
2022/05/15 04:17:28;;;;;;;12.05;4.28;;;;;;;11.22;78.47;100547.78;5099265;28;20479;-81
2022/05/15 04:19:54;;;;;;;7.67;4.53;;;;;;;11.19;78.75;100551.72;5099132;28;20063;-80
2022/05/15 04:22:19;;;;;;;8.63;5.10;;;;;;;11.18;78.39;100551.94;5098111;28;20028;-80
2022/05/15 04:24:44;;;;;;;8.77;4.72;;;;;;;11.12;78.88;100554.41;5098365;28;20126;-81
2022/05/15 04:27:10;;;;;;;9.10;4.37;;;;;;;11.21;78.12;100560.44;5098102;28;20032;-80
2022/05/15 04:29:35;;;;;;;7.70;4.83;;;;;;;11.17;78.47;100558.34;5098258;28;20064;-80
2022/05/15 04:32:00;;;;;;;9.63;4.83;;;;;;;11.19;78.67;100556.28;5099022;28;20251;-81
2022/05/15 04:34:27;;;;;;;10.30;5.00;;;;;;;11.19;78.78;100559.81;5098736;28;20478;-81
2022/05/15 04:36:54;;;;;;;8.85;4.47;;;;;;;11.20;78.44;100550.69;5080276;28;20382;-81
2022/05/15 04:39:19;;;;;;;10.38;4.85;;;;;;;11.09;79.05;100549.44;5098422;28;20024;-82
2022/05/15 04:41:45;;;;;;;9.55;4.07;;;;;;;11.21;78.73;100557.75;5081270;28;20081;-80
2022/05/15 04:44:10;;;;;;;6.82;4.45;;;;;;;11.39;78.22;100549.03;5080646;28;20363;-80
2022/05/15 04:46:36;;;;;;;8.75;4.43;;;;;;;11.42;77.99;100552.16;5080863;28;20071;-80
2022/05/15 04:49:01;;;;;;;7.82;4.40;;;;;;;11.52;77.36;100559.00;5098321;28;20049;-81
2022/05/15 04:51:28;;;;;;;9.37;4.60;;;;;;;11.63;77.18;100553.81;5082482;28;20039;-81
2022/05/15 04:53:54;;;;;;;8.50;4.25;;;;;;;11.69;76.18;100560.25;5081014;28;20298;-80
2022/05/15 04:56:19;;;;;;;8.27;3.85;;;;;;;11.70;76.11;100557.34;5099656;28;20398;-80
2022/05/15 04:58:45;;;;;;;7.78;4.13;;;;;;;11.67;76.85;100570.41;5103357;28;20107;-80
2022/05/15 05:01:10;;;;;;;10.50;4.43;;;;;;;11.82;75.81;100571.06;5105752;28;20032;-80
2022/05/15 05:03:35;;;;;;;12.20;4.10;;;;;;;11.72;76.00;100570.63;5086562;28;20051;-79
2022/05/15 05:06:01;;;;;;;8.63;4.17;;;;;;;11.75;76.39;100567.50;5099449;28;20024;-80
2022/05/15 05:08:26;;;;;;;7.03;4.10;;;;;;;11.70;76.90;100578.94;5098665;28;20024;-81
2022/05/15 05:10:51;;;;;;;9.60;4.37;;;;;;;11.72;76.92;100584.94;5080443;28;20051;-82
2022/05/15 05:13:17;;;;;;;11.83;5.30;;;;;;;11.82;76.94;100588.06;5098043;28;20079;-82
2022/05/15 05:15:42;;;;;;;7.55;4.63;;;;;;;11.64;77.31;100589.75;5099761;28;20470;-81
2022/05/15 05:18:07;;;;;;;8.40;4.43;;;;;;;11.70;77.51;100584.31;5100894;28;20069;-81
2022/05/15 05:20:33;;;;;;;8.33;4.00;;;;;;;11.74;77.22;100590.97;5101545;28;20378;-82
2022/05/15 05:22:58;;;;;;;6.55;4.07;;;;;;;11.84;77.05;100582.47;5100721;28;20360;-81
2022/05/15 05:25:23;;;;;;;9.17;3.70;;;;;;;12.10;75.85;100587.84;5100848;28;20036;-81
2022/05/15 05:27:49;;;;;;;7.90;4.30;;;;;;;12.24;75.03;100582.41;5100693;28;20054;-82
2022/05/15 05:30:17;;;;;;;6.73;3.53;;;;;;;12.30;74.46;100585.09;5101050;28;20599;-83
2022/05/15 05:32:44;;;;;;;8.15;3.85;;;;;;;12.36;74.38;100592.34;5108492;28;20028;-83
2022/05/15 05:35:12;;;;;;;8.60;3.92;;;;;;;12.52;73.90;100589.19;5116258;28;20020;-84
2022/05/15 05:37:39;;;;;;;6.93;3.83;;;;;;;12.77;73.34;100589.28;5114974;28;20083;-84
2022/05/15 05:40:05;;;;;;;7.43;3.28;;;;;;;12.95;72.09;100593.97;5095716;28;20039;-83
2022/05/15 05:42:30;;;;;;;7.65;3.60;;;;;;;13.15;71.60;100588.50;5114055;28;20023;-86
2022/05/15 05:44:56;;;;;;;7.18;4.20;;;;;;;13.12;71.23;100595.13;5107122;28;20047;-82
2022/05/15 05:47:28;;;;;;;10.73;4.00;;;;;;;13.36;70.59;100595.44;5109399;28;20039;-83
2022/05/15 05:49:54;;;;;;;5.13;2.85;;;;;;;13.53;69.68;100601.97;5108091;28;20270;-82
2022/05/15 05:52:20;;;;;;;7.43;3.90;;;;;;;13.36;69.63;100598.16;5105252;28;20040;-80
2022/05/15 05:54:45;;;;;;;9.57;3.70;;;;;;;13.55;69.00;100591.75;5101952;28;20028;-81
2022/05/15 05:57:11;;;;;;;9.80;3.75;;;;;;;13.63;69.01;100596.06;5101160;28;20032;-80
2022/05/15 05:59:36;;;;;;;8.82;4.93;;;;;;;13.79;68.66;100590.13;5098686;28;20062;-80
2022/05/15 06:02:02;;;;;;;7.47;4.07;;;;;;;13.83;68.26;100591.31;5097932;28;20479;-80
2022/05/15 06:04:40;;;;;;;7.13;3.72;;;;;;;13.68;68.53;100594.34;5097289;28;20530;-80
2022/05/15 06:07:07;;;;;;;6.47;3.20;;;;;;;13.64;68.43;100597.72;5097817;28;20059;-80
2022/05/15 06:09:32;;;;;;;10.38;3.20;;;;;;;13.69;68.29;100595.19;5098001;28;20154;-81
2022/05/15 06:11:58;;;;;;;7.75;3.50;;;;;;;13.98;67.44;100594.50;5080379;28;20050;-81
2022/05/15 06:14:23;;;;;;;6.85;3.30;;;;;;;14.15;67.31;100600.19;5100970;28;20040;-81
2022/05/15 06:16:49;;;;;;;6.80;3.53;;;;;;;14.28;66.63;100601.94;5104206;28;20409;-81
2022/05/15 06:19:15;;;;;;;6.30;2.83;;;;;;;14.67;65.45;100598.81;5080740;28;20328;-83
2022/05/15 06:21:40;;;;;;;5.63;3.30;;;;;;;14.87;64.36;100595.81;5082050;28;20027;-81
2022/05/15 06:24:06;;;;;;;5.63;2.80;;;;;;;15.25;62.81;100595.50;5101192;28;20031;-80
2022/05/15 06:26:31;;;;;;;8.90;3.50;;;;;;;15.62;61.05;100599.75;5105382;28;20081;-81
2022/05/15 06:28:56;;;;;;;;;;;;;;;15.87;60.51;100601.44;5097584;28;20154;-81
2022/05/15 06:31:22;;;;;;;5.35;2.80;;;;;;;16.40;58.48;100603.19;5097493;28;20269;-77
2022/05/15 06:33:47;;;;;;;;;;;;;;;17.16;56.81;100604.78;5082257;28;20034;-80
2022/05/15 06:36:12;;;;;;;8.33;3.20;;;;;;;17.04;55.62;100596.66;5100380;28;19920;-80
2022/05/15 06:38:40;;;;;;;;;;;;;;;17.86;54.44;100599.78;5083307;28;20101;-80
2022/05/15 06:41:07;;;;;;;5.57;2.80;;;;;;;17.78;53.92;100600.19;5101181;28;19962;-79
2022/05/15 06:43:33;;;;;;;4.80;2.10;;;;;;;18.06;53.93;100606.63;5083215;28;20079;-79
2022/05/15 06:45:58;;;;;;;4.65;2.42;;;;;;;18.14;52.13;100596.09;5102955;28;20020;-79
2022/05/15 06:48:23;;;;;;;6.78;2.55;;;;;;;17.98;53.22;100605.13;5084370;28;20028;-80
2022/05/15 06:50:49;;;;;;;5.38;2.58;;;;;;;18.25;52.45;100597.09;5102213;28;20024;-79
2022/05/15 06:53:15;;;;;;;6.80;2.40;;;;;;;17.81;53.32;100602.41;5101933;28;20028;-79
2022/05/15 06:58:25;;;;;;;6.13;2.42;;;;;;;17.48;54.26;100595.03;5102715;28;20043;-79
2022/05/15 07:00:50;;;;;;;5.70;2.30;;;;;;;17.53;54.04;100592.41;5102205;28;20103;-79
2022/05/15 07:03:16;;;;;;;4.38;2.30;;;;;;;17.53;54.96;100597.84;5081960;28;20411;-79
2022/05/15 07:05:42;;;;;;;8.00;2.63;;;;;;;17.39;54.07;100596.50;5081843;28;20039;-79
2022/05/15 07:08:10;;;;;;;6.45;2.42;;;;;;;17.22;55.42;100593.72;5081964;28;20363;-78
2022/05/15 07:10:35;;;;;;;6.20;2.38;;;;;;;17.25;54.66;100593.25;5101005;28;20047;-79
2022/05/15 07:13:00;;;;;;;5.13;2.47;;;;;;;17.48;54.16;100595.03;5101479;28;20028;-79
2022/05/15 07:15:25;;;;;;;;;;;;;;;17.43;54.17;100591.38;5099149;28;20039;-79
2022/05/15 07:17:51;;;;;;;5.97;2.30;;;;;;;17.42;53.89;100590.56;5098240;28;19959;-80
2022/05/15 07:20:16;;;;;;;;;;;;;;;17.61;53.34;100589.25;5099134;28;20031;-78
2022/05/15 07:22:41;;;;;;;5.13;2.40;;;;;;;17.78;53.50;100596.63;5096222;28;20289;-78
2022/05/15 07:25:07;;;;;;;;;;;;;;;17.74;53.62;100587.28;5077214;28;20046;-79
2022/05/15 07:27:32;;;;;;;8.57;3.25;;;;;;;17.96;53.87;100596.38;5095773;28;19927;-78
2022/05/15 07:29:57;;;;;;;;;;;;;;;18.29;52.81;100588.13;5094205;28;20083;-78
2022/05/15 07:32:23;;;;;;;6.35;2.42;;;;;;;18.44;52.11;100590.28;5093871;28;19912;-78
2022/05/15 07:34:48;;;;;;;;;;;;;;;18.70;50.51;100584.06;5095860;28;20432;-77
2022/05/15 07:37:13;;;;;;;5.43;1.80;;;;;;;18.67;50.80;100584.59;5092407;28;19919;-77
2022/05/15 07:39:39;;;;;;;;;;;;;;;18.60;51.09;100585.88;5076351;28;20016;-79
2022/05/15 07:42:05;;;;;;;5.25;2.42;;;;;;;18.71;51.42;100576.72;5097309;28;19999;-79
2022/05/15 07:44:30;;;;;;;;;;;;;;;18.83;51.62;100588.31;5096181;28;20024;-79
2022/05/15 07:46:55;;;;;;;5.10;2.53;;;;;;;18.84;51.90;100583.69;5095760;28;19912;-80
2022/05/15 07:49:20;;;;;;;;;;;;;;;18.99;48.94;100586.56;5094874;28;20031;-78
2022/05/15 07:51:46;;;;;;;5.47;2.53;;;;;;;19.07;49.75;100586.97;5093821;28;19916;-78
2022/05/15 07:54:12;;;;;;;;;;;;;;;19.18;49.15;100585.16;5095201;28;20048;-83
2022/05/15 07:56:37;;;;;;;5.05;1.98;;;;;;;19.18;46.95;100592.50;5075558;28;19912;-75
2022/05/15 07:59:03;;;;;;;6.25;2.53;;;;;;;19.21;46.91;100583.81;5092741;28;20032;-77
2022/05/15 08:01:29;;;;;;;5.15;2.10;;;;;;;19.61;46.67;100581.50;5074726;28;20069;-77
2022/05/15 08:03:55;;;;;;;7.15;2.15;;;;;;;19.68;44.38;100579.38;5074176;28;20036;-78
2022/05/15 08:09:09;;;;;;;6.90;2.75;;;;;;;19.70;45.67;100573.66;5045922;28;20456;-76
2022/05/15 08:11:36;;;;;;;5.72;2.20;;;;;;;19.69;43.92;100575.56;5092515;28;20111;-77
2022/05/15 08:14:03;;;;;;;8.73;2.03;;;;;;;19.63;43.82;100570.31;5092877;28;20111;-75
2022/05/15 08:16:29;;;;;;;7.45;1.92;;;;;;;19.83;44.04;100575.09;5074666;28;20020;-76
2022/05/15 08:24:23;;;;;;;4.25;2.00;;;;;;;19.80;45.61;100568.25;5092733;28;20124;-75
2022/05/15 08:26:49;;;;;;;4.88;2.13;;;;;;;19.80;45.66;100572.91;5092508;28;20462;-76
2022/05/15 08:29:15;;;;;;;5.47;2.10;;;;;;;20.11;44.46;100564.63;5092554;28;20382;-75
2022/05/15 08:31:40;;;;;;;4.35;1.65;;;;;;;20.32;43.28;100567.47;5092922;28;20028;-77
2022/05/15 08:34:07;;;;;;;4.88;1.80;;;;;;;20.27;42.63;100568.28;5093230;28;20028;-76
2022/05/15 08:36:33;;;;;;;6.20;2.25;;;;;;;19.96;41.93;100569.19;5093580;28;20031;-77
2022/05/15 08:38:59;;;;;;;3.35;1.63;;;;;;;20.10;40.94;100557.50;5092718;28;20070;-77
2022/05/15 08:41:41;;;;;;;3.90;1.48;;;;;;;20.13;40.73;100558.88;5075807;28;20039;-78
2022/05/15 08:44:14;;;;;;;5.53;2.17;;;;;;;20.11;40.22;100558.31;5093812;28;20359;-77
2022/05/15 08:46:50;;;;;;;5.47;2.00;;;;;;;20.48;39.49;100546.50;5075734;28;20031;-78
2022/05/15 08:49:20;;;;;;;;;;;;;;;20.38;39.50;100559.06;5098182;28;20542;-76
2022/05/15 08:52:11;;;;;;;4.40;1.40;;;;;;;20.25;39.17;100559.50;5096935;28;19908;-77
2022/05/15 08:54:41;;;;;;;4.80;1.60;;;;;;;20.35;38.59;100547.78;5097264;28;20035;-77
2022/05/15 08:57:33;;;;;;;5.10;1.40;;;;;;;20.44;39.28;100543.47;5096955;28;20027;-78
2022/05/15 08:59:59;;;;;;;5.40;1.40;;;;;;;20.51;40.11;100549.53;5097028;28;20058;-78
2022/05/15 09:02:25;;;;;;;5.35;1.48;;;;;;;20.75;39.01;100545.25;5078243;28;20035;-78
2022/05/15 09:04:54;;;;;;;6.20;1.70;;;;;;;20.83;39.15;100548.56;5098161;28;20528;-78
2022/05/15 09:07:34;;;;;;;5.20;2.10;;;;;;;20.99;38.66;100542.84;5077640;28;20475;-77
2022/05/15 09:10:23;;;;;;;3.60;1.35;;;;;;;21.02;38.60;100546.97;5095482;28;20129;-76
2022/05/15 09:13:00;;;;;;;3.60;1.73;;;;;;;21.08;38.90;100546.72;5095625;28;20059;-77
2022/05/15 09:15:28;;;;;;;;;;;;;;;20.99;39.23;100537.34;5078040;28;20024;-76
2022/05/15 09:18:05;;;;;;;4.85;2.10;;;;;;;20.78;40.08;100544.69;5095770;28;19919;-77
2022/05/15 09:20:59;;;;;;;8.20;1.45;;;;;;;21.13;39.95;100541.25;5077351;28;20435;-76
2022/05/15 09:23:39;;;;;;;4.75;1.92;;;;;;;21.14;39.65;100539.31;5092523;28;20109;-78
2022/05/15 09:26:24;;;;;;;4.80;1.65;;;;;;;21.18;39.59;100550.53;5095389;28;20067;-77
2022/05/15 09:28:53;;;;;;;3.72;1.55;;;;;;;21.05;40.59;100540.94;5096153;28;20383;-76
2022/05/15 09:31:21;;;;;;;3.88;1.73;;;;;;;21.19;40.30;100538.50;5095236;28;20339;-77
2022/05/15 09:33:52;;;;;;;7.00;1.95;;;;;;;20.94;40.48;100533.81;5096129;28;20125;-76
2022/05/15 09:36:28;;;;;;;4.88;2.38;;;;;;;21.21;40.18;100528.94;5096400;28;20028;-77
2022/05/15 09:39:25;;;;;;;4.97;1.73;;;;;;;21.15;40.67;100536.28;5096307;28;20032;-77
2022/05/15 09:44:42;;;;;;;5.72;1.90;;;;;;;21.37;40.11;100527.03;5095967;28;19981;-77
2022/05/15 09:47:11;;;;;;;4.88;1.60;;;;;;;21.51;39.71;100530.03;5077485;28;20447;-76
2022/05/15 09:49:37;;;;;;;3.70;1.55;;;;;;;21.80;39.25;100534.69;5095753;28;20032;-77
2022/05/15 09:52:32;;;;;;;4.72;1.40;;;;;;;21.76;38.85;100528.13;5095079;28;20036;-77
2022/05/15 09:55:22;;;;;;;3.97;1.67;;;;;;;21.64;39.14;100538.56;5091303;28;20036;-76
2022/05/15 09:58:16;;;;;;;5.13;1.50;;;;;;;21.58;39.36;100531.41;5094743;28;20052;-76
2022/05/15 10:00:42;;;;;;;3.85;1.60;;;;;;;21.68;39.79;100522.34;5092798;28;20097;-76
2022/05/15 10:03:26;;;;;;;4.40;1.55;;;;;;;22.19;37.53;100514.88;5096897;28;20028;-77
2022/05/15 10:06:05;;;;;;;5.05;1.75;;;;;;;22.10;37.17;100514.63;5097304;28;20031;-76
2022/05/15 10:08:32;;;;;;;4.15;1.70;;;;;;;22.21;36.93;100511.88;5095719;28;20085;-76
2022/05/15 10:11:01;;;;;;;4.80;1.27;;;;;;;21.98;36.95;100522.31;5096029;28;20141;-77
2022/05/15 10:13:50;;;;;;;3.60;1.40;;;;;;;22.00;37.06;100517.41;5096071;28;20028;-77
2022/05/15 10:16:18;;;;;;;6.07;1.95;;;;;;;21.55;37.27;100517.44;5096234;28;20042;-77
2022/05/15 10:18:59;;;;;;;4.65;1.75;;;;;;;21.79;37.15;100504.78;5096669;28;20028;-76
2022/05/15 10:21:33;;;;;;;4.30;1.70;;;;;;;22.03;36.78;100514.13;5079268;28;20034;-76
2022/05/15 10:24:05;;;;;;;4.97;1.63;;;;;;;21.83;37.30;100517.69;5101719;28;20047;-76
2022/05/15 10:26:50;;;;;;;4.45;1.48;;;;;;;22.15;36.73;100519.28;5106994;28;20382;-76
2022/05/15 10:29:24;;;;;;;8.77;2.25;;;;;;;22.32;36.05;100528.00;5091902;28;20036;-76
2022/05/15 10:31:55;;;;;;;4.25;1.10;;;;;;;22.04;36.50;100518.47;5099150;28;20024;-76
2022/05/15 10:34:25;;;;;;;3.97;1.48;;;;;;;22.20;36.22;100508.31;5096911;28;20028;-76
2022/05/15 10:37:15;;;;;;;3.85;1.60;;;;;;;22.38;35.87;100515.09;5096051;28;20047;-77
2022/05/15 10:40:06;;;;;;;6.53;1.58;;;;;;;22.60;35.39;100496.28;5095261;28;20028;-76
2022/05/15 10:42:58;;;;;;;6.90;2.28;;;;;;;22.56;35.14;100508.97;5077440;28;20028;-75
2022/05/15 10:45:37;;;;;;;2.83;1.02;;;;;;;22.79;33.58;100496.50;5094533;28;20031;-77
2022/05/15 10:48:38;;;;;;;4.40;1.50;;;;;;;22.76;34.04;100494.28;5094876;28;20126;-76
2022/05/15 10:51:23;;;;;;;6.88;2.00;;;;;;;22.84;33.75;100482.75;4996012;28;20035;-76
2022/05/15 10:59:46;;;;;;;4.45;1.45;;;;;;;22.52;33.04;100467.53;5095209;28;20050;-75
2022/05/15 11:02:26;;;;;;;4.60;1.17;;;;;;;22.58;32.14;100476.53;5094782;28;20514;-75
2022/05/15 11:05:00;;;;;;;3.38;1.13;;;;;;;22.71;33.01;100472.34;5076509;28;20338;-76
2022/05/15 11:07:31;;;;;;;3.28;1.10;;;;;;;23.19;33.19;100467.91;5094535;28;20028;-75
2022/05/15 11:10:14;;;;;;;3.30;1.48;;;;;;;23.16;33.46;100471.22;5072508;28;20060;-76
2022/05/15 11:13:11;;;;;;;3.70;1.48;;;;;;;22.90;32.59;100461.56;5072634;28;20464;-75
2022/05/15 11:15:37;;;;;;;3.28;1.08;;;;;;;22.86;33.49;100461.28;5073630;28;20157;-76
2022/05/15 11:18:34;;;;;;;5.10;1.33;;;;;;;23.39;32.88;100459.50;5093661;28;20060;-77
2022/05/15 11:21:01;;;;;;;;;;;;;;;23.34;32.63;100455.97;5093626;28;20028;-77
2022/05/15 11:23:59;;;;;;;5.85;1.20;;;;;;;23.44;32.80;100459.47;5093930;28;19912;-76
2022/05/15 11:26:31;;;;;;;3.83;1.05;;;;;;;23.43;33.02;100468.81;5092824;28;20077;-77
2022/05/15 11:29:02;;;;;;;5.07;1.65;;;;;;;23.52;32.41;100452.53;5093428;28;20066;-76
2022/05/15 11:31:33;;;;;;;4.07;1.27;;;;;;;23.51;33.66;100450.84;5093193;28;20425;-78
2022/05/15 11:34:04;;;;;;;3.60;1.20;;;;;;;23.63;32.08;100448.59;5075164;28;20032;-77
2022/05/15 11:36:39;;;;;;;4.45;1.35;;;;;;;23.53;33.15;100445.91;5092764;28;20149;-77
2022/05/15 11:39:22;;;;;;;3.47;1.20;;;;;;;23.37;32.36;100436.13;5092820;28;20403;-76
2022/05/15 11:42:08;;;;;;;5.65;1.95;;;;;;;23.45;32.33;100449.28;5093218;28;20057;-75
2022/05/15 11:44:37;;;;;;;3.25;1.10;;;;;;;23.62;32.01;100432.38;5092764;28;20036;-76
2022/05/15 11:47:34;;;;;;;4.55;1.67;;;;;;;23.84;31.19;100427.97;5092879;28;20039;-77
2022/05/15 11:50:13;;;;;;;3.53;1.20;;;;;;;23.83;30.53;100431.00;5075125;28;20119;-77
2022/05/15 11:52:41;;;;;;;3.10;1.20;;;;;;;23.50;30.57;100424.47;5074847;28;20032;-78
2022/05/15 11:55:40;;;;;;;4.30;1.40;;;;;;;23.78;30.45;100422.81;5093034;28;20032;-77
2022/05/15 11:58:30;;;;;;;4.90;1.50;;;;;;;23.54;31.86;100415.38;5092662;28;20029;-77
2022/05/15 12:01:10;;;;;;;2.90;0.95;;;;;;;24.01;31.42;100419.22;5063141;28;20070;-78